sensor_id;sensor_type;location;lat;lon;timestamp;temperature;humidity
56374;DHT22;58212;47.034;7.376;2023-04-24T00:02:20;9.70;99.90
56374;DHT22;58212;47.034;7.376;2023-04-24T00:04:49;9.80;99.90
56374;DHT22;58212;47.034;7.376;2023-04-24T00:07:18;9.80;99.90
56374;DHT22;58212;47.034;7.376;2023-04-24T00:09:46;9.70;99.90
56374;DHT22;58212;47.034;7.376;2023-04-24T00:12:13;9.90;99.90
56374;DHT22;58212;47.034;7.376;2023-04-24T00:14:41;9.70;99.90
56374;DHT22;58212;47.034;7.376;2023-04-24T00:17:08;9.70;99.90
56374;DHT22;58212;47.034;7.376;2023-04-24T00:19:35;9.80;99.90
56374;DHT22;58212;47.034;7.376;2023-04-24T00:22:02;9.80;99.90
56374;DHT22;58212;47.034;7.376;2023-04-24T00:24:30;10.10;99.90
56374;DHT22;58212;47.034;7.376;2023-04-24T00:26:58;10.20;99.90
56374;DHT22;58212;47.034;7.376;2023-04-24T00:29:26;10.00;99.90
56374;DHT22;58212;47.034;7.376;2023-04-24T00:31:54;10.00;99.90
56374;DHT22;58212;47.034;7.376;2023-04-24T00:34:21;9.70;99.90
56374;DHT22;58212;47.034;7.376;2023-04-24T00:36:48;9.50;99.90
56374;DHT22;58212;47.034;7.376;2023-04-24T00:39:19;9.80;99.90
56374;DHT22;58212;47.034;7.376;2023-04-24T00:41:48;9.70;99.90
56374;DHT22;58212;47.034;7.376;2023-04-24T00:44:16;10.00;99.90
56374;DHT22;58212;47.034;7.376;2023-04-24T00:46:45;10.00;99.90
56374;DHT22;58212;47.034;7.376;2023-04-24T00:49:18;9.90;99.90
56374;DHT22;58212;47.034;7.376;2023-04-24T00:51:45;9.70;99.90
56374;DHT22;58212;47.034;7.376;2023-04-24T00:54:13;9.60;99.90
56374;DHT22;58212;47.034;7.376;2023-04-24T00:56:44;9.80;99.90
56374;DHT22;58212;47.034;7.376;2023-04-24T00:59:14;9.90;99.90
56374;DHT22;58212;47.034;7.376;2023-04-24T01:01:43;9.50;99.90
56374;DHT22;58212;47.034;7.376;2023-04-24T01:04:12;9.60;99.90
56374;DHT22;58212;47.034;7.376;2023-04-24T01:06:40;9.80;99.90
56374;DHT22;58212;47.034;7.376;2023-04-24T01:09:07;10.00;99.90
56374;DHT22;58212;47.034;7.376;2023-04-24T01:11:36;9.80;99.90
56374;DHT22;58212;47.034;7.376;2023-04-24T01:14:04;9.60;99.90
56374;DHT22;58212;47.034;7.376;2023-04-24T01:16:33;9.80;99.90
56374;DHT22;58212;47.034;7.376;2023-04-24T01:19:01;10.00;99.90
56374;DHT22;58212;47.034;7.376;2023-04-24T01:21:29;9.90;99.90
56374;DHT22;58212;47.034;7.376;2023-04-24T01:23:58;9.90;99.90
56374;DHT22;58212;47.034;7.376;2023-04-24T01:26:25;10.00;99.90
56374;DHT22;58212;47.034;7.376;2023-04-24T01:28:53;10.10;99.90
56374;DHT22;58212;47.034;7.376;2023-04-24T01:31:20;10.10;99.90
56374;DHT22;58212;47.034;7.376;2023-04-24T01:34:13;9.80;99.90
56374;DHT22;58212;47.034;7.376;2023-04-24T01:37:05;9.80;99.90
56374;DHT22;58212;47.034;7.376;2023-04-24T01:39:34;9.80;99.90
56374;DHT22;58212;47.034;7.376;2023-04-24T01:42:04;9.80;99.90
56374;DHT22;58212;47.034;7.376;2023-04-24T01:44:31;9.90;99.90
56374;DHT22;58212;47.034;7.376;2023-04-24T01:47:03;10.00;99.90
56374;DHT22;58212;47.034;7.376;2023-04-24T01:49:30;9.70;99.90
56374;DHT22;58212;47.034;7.376;2023-04-24T01:52:01;9.60;99.90
56374;DHT22;58212;47.034;7.376;2023-04-24T01:54:30;9.80;99.90
56374;DHT22;58212;47.034;7.376;2023-04-24T01:57:00;9.70;99.90
56374;DHT22;58212;47.034;7.376;2023-04-24T01:59:28;9.80;99.90
56374;DHT22;58212;47.034;7.376;2023-04-24T02:01:56;10.00;99.90
56374;DHT22;58212;47.034;7.376;2023-04-24T02:04:24;10.00;99.90
56374;DHT22;58212;47.034;7.376;2023-04-24T02:06:51;9.90;99.90
56374;DHT22;58212;47.034;7.376;2023-04-24T02:09:18;9.50;99.90
56374;DHT22;58212;47.034;7.376;2023-04-24T02:11:45;9.70;99.90
56374;DHT22;58212;47.034;7.376;2023-04-24T02:14:15;9.80;99.90
56374;DHT22;58212;47.034;7.376;2023-04-24T02:16:43;9.90;99.90
56374;DHT22;58212;47.034;7.376;2023-04-24T02:19:11;9.80;99.90
56374;DHT22;58212;47.034;7.376;2023-04-24T02:21:40;9.70;99.90
56374;DHT22;58212;47.034;7.376;2023-04-24T02:24:08;9.90;99.90
56374;DHT22;58212;47.034;7.376;2023-04-24T02:26:35;10.00;99.90
56374;DHT22;58212;47.034;7.376;2023-04-24T02:29:02;9.90;99.90
56374;DHT22;58212;47.034;7.376;2023-04-24T02:31:31;9.80;99.90
56374;DHT22;58212;47.034;7.376;2023-04-24T02:33:58;9.90;99.90
56374;DHT22;58212;47.034;7.376;2023-04-24T02:36:25;9.80;99.90
56374;DHT22;58212;47.034;7.376;2023-04-24T02:38:52;9.80;99.90
56374;DHT22;58212;47.034;7.376;2023-04-24T02:41:19;10.00;99.90
56374;DHT22;58212;47.034;7.376;2023-04-24T02:43:47;10.00;99.90
56374;DHT22;58212;47.034;7.376;2023-04-24T02:46:14;10.00;99.90
56374;DHT22;58212;47.034;7.376;2023-04-24T02:48:43;9.90;99.90
56374;DHT22;58212;47.034;7.376;2023-04-24T02:51:10;9.80;99.90
56374;DHT22;58212;47.034;7.376;2023-04-24T02:53:37;9.70;99.90
56374;DHT22;58212;47.034;7.376;2023-04-24T02:56:04;9.60;99.90
56374;DHT22;58212;47.034;7.376;2023-04-24T02:58:31;9.60;99.90
56374;DHT22;58212;47.034;7.376;2023-04-24T03:00:58;9.70;99.90
56374;DHT22;58212;47.034;7.376;2023-04-24T03:03:26;9.70;99.90
56374;DHT22;58212;47.034;7.376;2023-04-24T03:05:55;9.70;99.90
56374;DHT22;58212;47.034;7.376;2023-04-24T03:08:23;9.70;99.90
56374;DHT22;58212;47.034;7.376;2023-04-24T03:10:50;9.60;99.90
56374;DHT22;58212;47.034;7.376;2023-04-24T03:13:17;9.70;99.90
56374;DHT22;58212;47.034;7.376;2023-04-24T03:15:45;9.50;99.90
56374;DHT22;58212;47.034;7.376;2023-04-24T03:18:12;9.70;99.90
56374;DHT22;58212;47.034;7.376;2023-04-24T03:20:39;9.70;99.90
56374;DHT22;58212;47.034;7.376;2023-04-24T03:23:08;9.60;99.90
56374;DHT22;58212;47.034;7.376;2023-04-24T03:25:36;9.80;99.90
56374;DHT22;58212;47.034;7.376;2023-04-24T03:28:05;9.70;99.90
56374;DHT22;58212;47.034;7.376;2023-04-24T03:30:45;9.70;99.90
56374;DHT22;58212;47.034;7.376;2023-04-24T03:33:14;9.60;99.90
56374;DHT22;58212;47.034;7.376;2023-04-24T03:35:51;9.60;99.90
56374;DHT22;58212;47.034;7.376;2023-04-24T03:38:20;9.70;99.90
56374;DHT22;58212;47.034;7.376;2023-04-24T03:40:50;9.70;99.90
56374;DHT22;58212;47.034;7.376;2023-04-24T03:43:31;9.80;99.90
56374;DHT22;58212;47.034;7.376;2023-04-24T03:46:00;9.80;99.90
56374;DHT22;58212;47.034;7.376;2023-04-24T03:48:28;9.60;99.90
56374;DHT22;58212;47.034;7.376;2023-04-24T03:50:58;9.40;99.90
56374;DHT22;58212;47.034;7.376;2023-04-24T03:53:26;9.50;99.90
56374;DHT22;58212;47.034;7.376;2023-04-24T03:55:55;9.60;99.90
56374;DHT22;58212;47.034;7.376;2023-04-24T03:58:23;9.50;99.90
56374;DHT22;58212;47.034;7.376;2023-04-24T04:00:54;9.50;99.90
56374;DHT22;58212;47.034;7.376;2023-04-24T04:03:42;9.40;99.90
56374;DHT22;58212;47.034;7.376;2023-04-24T04:06:10;9.60;99.90
56374;DHT22;58212;47.034;7.376;2023-04-24T04:08:41;9.80;99.90
56374;DHT22;58212;47.034;7.376;2023-04-24T04:11:13;9.60;99.90
56374;DHT22;58212;47.034;7.376;2023-04-24T04:13:44;9.50;99.90
56374;DHT22;58212;47.034;7.376;2023-04-24T04:16:17;9.80;99.90
56374;DHT22;58212;47.034;7.376;2023-04-24T04:18:45;9.80;99.90
56374;DHT22;58212;47.034;7.376;2023-04-24T04:21:12;9.80;99.90
56374;DHT22;58212;47.034;7.376;2023-04-24T04:23:42;9.60;99.90
56374;DHT22;58212;47.034;7.376;2023-04-24T04:26:23;9.60;99.90
56374;DHT22;58212;47.034;7.376;2023-04-24T04:29:01;9.60;99.90
56374;DHT22;58212;47.034;7.376;2023-04-24T04:31:31;9.50;99.90
56374;DHT22;58212;47.034;7.376;2023-04-24T04:34:01;9.60;99.90
56374;DHT22;58212;47.034;7.376;2023-04-24T04:36:31;9.70;99.90
56374;DHT22;58212;47.034;7.376;2023-04-24T04:39:17;9.50;99.90
56374;DHT22;58212;47.034;7.376;2023-04-24T04:42:08;9.40;99.90
56374;DHT22;58212;47.034;7.376;2023-04-24T04:44:39;9.50;99.90
56374;DHT22;58212;47.034;7.376;2023-04-24T04:47:10;9.30;99.90
56374;DHT22;58212;47.034;7.376;2023-04-24T04:49:38;9.30;99.90
56374;DHT22;58212;47.034;7.376;2023-04-24T04:52:17;9.30;99.90
56374;DHT22;58212;47.034;7.376;2023-04-24T04:54:51;9.40;99.90
56374;DHT22;58212;47.034;7.376;2023-04-24T04:57:19;9.30;99.90
56374;DHT22;58212;47.034;7.376;2023-04-24T04:59:46;9.40;99.90
56374;DHT22;58212;47.034;7.376;2023-04-24T05:02:22;9.30;99.90
56374;DHT22;58212;47.034;7.376;2023-04-24T05:04:49;9.50;99.90
56374;DHT22;58212;47.034;7.376;2023-04-24T05:07:17;9.40;99.90
56374;DHT22;58212;47.034;7.376;2023-04-24T05:09:52;9.50;99.90
56374;DHT22;58212;47.034;7.376;2023-04-24T05:12:20;9.50;99.90
56374;DHT22;58212;47.034;7.376;2023-04-24T05:14:51;9.50;99.90
56374;DHT22;58212;47.034;7.376;2023-04-24T05:17:19;9.90;99.90
56374;DHT22;58212;47.034;7.376;2023-04-24T05:19:52;9.90;99.90
56374;DHT22;58212;47.034;7.376;2023-04-24T05:22:19;11.30;99.90
56374;DHT22;58212;47.034;7.376;2023-04-24T05:24:51;10.70;99.90
56374;DHT22;58212;47.034;7.376;2023-04-24T05:27:37;10.30;99.90
56374;DHT22;58212;47.034;7.376;2023-04-24T05:30:12;10.10;99.90
56374;DHT22;58212;47.034;7.376;2023-04-24T05:32:40;10.10;99.90
56374;DHT22;58212;47.034;7.376;2023-04-24T05:35:07;10.00;99.90
56374;DHT22;58212;47.034;7.376;2023-04-24T05:37:35;10.00;99.90
56374;DHT22;58212;47.034;7.376;2023-04-24T05:40:08;10.20;99.90
56374;DHT22;58212;47.034;7.376;2023-04-24T05:42:39;10.30;99.90
56374;DHT22;58212;47.034;7.376;2023-04-24T05:45:07;10.30;99.90
56374;DHT22;58212;47.034;7.376;2023-04-24T05:47:35;10.40;99.90
56374;DHT22;58212;47.034;7.376;2023-04-24T05:50:02;10.30;99.90
56374;DHT22;58212;47.034;7.376;2023-04-24T05:52:30;10.40;99.90
56374;DHT22;58212;47.034;7.376;2023-04-24T05:54:58;10.30;99.90
56374;DHT22;58212;47.034;7.376;2023-04-24T05:57:32;10.30;99.90
56374;DHT22;58212;47.034;7.376;2023-04-24T06:00:05;10.20;99.90
56374;DHT22;58212;47.034;7.376;2023-04-24T06:02:47;10.50;99.90
56374;DHT22;58212;47.034;7.376;2023-04-24T06:05:14;10.90;99.90
56374;DHT22;58212;47.034;7.376;2023-04-24T06:07:42;11.00;99.90
56374;DHT22;58212;47.034;7.376;2023-04-24T06:10:10;11.30;99.90
56374;DHT22;58212;47.034;7.376;2023-04-24T06:12:44;11.10;99.90
56374;DHT22;58212;47.034;7.376;2023-04-24T06:15:16;11.20;99.90
56374;DHT22;58212;47.034;7.376;2023-04-24T06:17:50;12.70;99.90
56374;DHT22;58212;47.034;7.376;2023-04-24T06:20:20;15.90;99.90
56374;DHT22;58212;47.034;7.376;2023-04-24T06:22:48;15.50;99.90
56374;DHT22;58212;47.034;7.376;2023-04-24T06:25:15;15.20;99.90
56374;DHT22;58212;47.034;7.376;2023-04-24T06:27:45;15.50;99.90
56374;DHT22;58212;47.034;7.376;2023-04-24T06:30:12;13.60;99.90
56374;DHT22;58212;47.034;7.376;2023-04-24T06:32:40;12.40;99.90
56374;DHT22;58212;47.034;7.376;2023-04-24T06:35:08;12.30;99.90
56374;DHT22;58212;47.034;7.376;2023-04-24T06:37:38;12.10;99.90
56374;DHT22;58212;47.034;7.376;2023-04-24T06:40:06;12.00;99.90
56374;DHT22;58212;47.034;7.376;2023-04-24T06:42:34;11.80;99.90
56374;DHT22;58212;47.034;7.376;2023-04-24T06:45:05;11.90;99.90
56374;DHT22;58212;47.034;7.376;2023-04-24T06:47:32;12.00;99.90
56374;DHT22;58212;47.034;7.376;2023-04-24T06:49:59;11.80;99.90
56374;DHT22;58212;47.034;7.376;2023-04-24T06:52:27;11.70;99.90
56374;DHT22;58212;47.034;7.376;2023-04-24T06:55:00;12.40;99.90
56374;DHT22;58212;47.034;7.376;2023-04-24T06:57:28;13.00;99.90
56374;DHT22;58212;47.034;7.376;2023-04-24T06:59:55;13.60;99.90
56374;DHT22;58212;47.034;7.376;2023-04-24T07:02:24;13.80;99.90
56374;DHT22;58212;47.034;7.376;2023-04-24T07:04:52;14.40;99.90
56374;DHT22;58212;47.034;7.376;2023-04-24T07:07:19;14.60;99.90
56374;DHT22;58212;47.034;7.376;2023-04-24T07:09:48;14.20;99.90
56374;DHT22;58212;47.034;7.376;2023-04-24T07:12:16;14.50;99.90
56374;DHT22;58212;47.034;7.376;2023-04-24T07:14:46;14.70;99.90
56374;DHT22;58212;47.034;7.376;2023-04-24T07:17:14;14.70;99.90
56374;DHT22;58212;47.034;7.376;2023-04-24T07:19:43;14.70;99.90
56374;DHT22;58212;47.034;7.376;2023-04-24T07:22:10;14.50;99.90
56374;DHT22;58212;47.034;7.376;2023-04-24T07:24:42;14.40;99.90
56374;DHT22;58212;47.034;7.376;2023-04-24T07:27:09;14.60;99.90
56374;DHT22;58212;47.034;7.376;2023-04-24T07:29:37;14.40;99.90
56374;DHT22;58212;47.034;7.376;2023-04-24T07:32:05;13.50;99.90
56374;DHT22;58212;47.034;7.376;2023-04-24T07:34:33;13.20;99.90
56374;DHT22;58212;47.034;7.376;2023-04-24T07:37:26;12.90;99.90
56374;DHT22;58212;47.034;7.376;2023-04-24T07:39:54;12.60;99.90
56374;DHT22;58212;47.034;7.376;2023-04-24T07:42:22;12.50;99.90
56374;DHT22;58212;47.034;7.376;2023-04-24T07:44:49;12.50;99.90
56374;DHT22;58212;47.034;7.376;2023-04-24T07:47:16;12.40;99.90
56374;DHT22;58212;47.034;7.376;2023-04-24T07:49:43;12.10;99.90
56374;DHT22;58212;47.034;7.376;2023-04-24T07:52:11;12.00;99.90
56374;DHT22;58212;47.034;7.376;2023-04-24T07:54:40;12.30;99.90
56374;DHT22;58212;47.034;7.376;2023-04-24T07:57:08;12.40;99.90
56374;DHT22;58212;47.034;7.376;2023-04-24T08:00:02;12.10;99.90
56374;DHT22;58212;47.034;7.376;2023-04-24T08:02:37;12.50;99.90
56374;DHT22;58212;47.034;7.376;2023-04-24T08:05:05;12.30;99.90
56374;DHT22;58212;47.034;7.376;2023-04-24T08:07:32;12.50;99.90
56374;DHT22;58212;47.034;7.376;2023-04-24T08:10:01;13.50;99.90
56374;DHT22;58212;47.034;7.376;2023-04-24T08:12:29;13.50;99.90
56374;DHT22;58212;47.034;7.376;2023-04-24T08:14:56;13.20;99.90
56374;DHT22;58212;47.034;7.376;2023-04-24T08:17:24;14.00;99.90
56374;DHT22;58212;47.034;7.376;2023-04-24T08:19:51;14.40;99.90
56374;DHT22;58212;47.034;7.376;2023-04-24T08:22:25;14.50;99.90
56374;DHT22;58212;47.034;7.376;2023-04-24T08:24:53;14.80;99.90
56374;DHT22;58212;47.034;7.376;2023-04-24T08:27:46;14.90;99.90
56374;DHT22;58212;47.034;7.376;2023-04-24T08:30:13;14.90;99.90
56374;DHT22;58212;47.034;7.376;2023-04-24T08:32:40;14.70;99.90
56374;DHT22;58212;47.034;7.376;2023-04-24T08:35:08;15.00;99.90
56374;DHT22;58212;47.034;7.376;2023-04-24T08:37:36;15.00;99.90
56374;DHT22;58212;47.034;7.376;2023-04-24T08:40:08;14.80;99.90
56374;DHT22;58212;47.034;7.376;2023-04-24T08:42:37;14.50;99.90
56374;DHT22;58212;47.034;7.376;2023-04-24T08:45:09;14.90;99.90
56374;DHT22;58212;47.034;7.376;2023-04-24T08:47:38;14.90;99.90
56374;DHT22;58212;47.034;7.376;2023-04-24T08:50:06;14.70;99.90
56374;DHT22;58212;47.034;7.376;2023-04-24T08:52:41;14.60;99.90
56374;DHT22;58212;47.034;7.376;2023-04-24T08:55:09;14.90;99.90
56374;DHT22;58212;47.034;7.376;2023-04-24T08:57:36;15.10;99.90
56374;DHT22;58212;47.034;7.376;2023-04-24T09:00:09;14.60;99.90
56374;DHT22;58212;47.034;7.376;2023-04-24T09:02:36;14.90;99.90
56374;DHT22;58212;47.034;7.376;2023-04-24T09:05:05;15.00;99.90
56374;DHT22;58212;47.034;7.376;2023-04-24T09:07:35;15.10;99.90
56374;DHT22;58212;47.034;7.376;2023-04-24T09:10:04;15.10;99.90
56374;DHT22;58212;47.034;7.376;2023-04-24T09:12:31;15.20;99.90
56374;DHT22;58212;47.034;7.376;2023-04-24T09:15:00;14.70;99.90
56374;DHT22;58212;47.034;7.376;2023-04-24T09:17:38;14.90;99.90
56374;DHT22;58212;47.034;7.376;2023-04-24T09:20:07;15.50;99.90
56374;DHT22;58212;47.034;7.376;2023-04-24T09:22:35;15.50;99.90
56374;DHT22;58212;47.034;7.376;2023-04-24T09:25:04;15.30;99.90
56374;DHT22;58212;47.034;7.376;2023-04-24T09:27:32;15.00;99.90
56374;DHT22;58212;47.034;7.376;2023-04-24T09:30:00;14.80;99.90
56374;DHT22;58212;47.034;7.376;2023-04-24T09:32:27;15.20;99.90
56374;DHT22;58212;47.034;7.376;2023-04-24T09:35:10;14.90;99.90
56374;DHT22;58212;47.034;7.376;2023-04-24T09:37:47;14.60;99.90
56374;DHT22;58212;47.034;7.376;2023-04-24T09:40:45;14.00;99.90
56374;DHT22;58212;47.034;7.376;2023-04-24T09:43:44;14.00;99.90
56374;DHT22;58212;47.034;7.376;2023-04-24T09:46:11;14.50;99.90
56374;DHT22;58212;47.034;7.376;2023-04-24T09:48:39;14.70;99.90
56374;DHT22;58212;47.034;7.376;2023-04-24T09:51:08;14.40;99.90
56374;DHT22;58212;47.034;7.376;2023-04-24T09:54:02;14.10;99.90
56374;DHT22;58212;47.034;7.376;2023-04-24T09:56:32;14.10;99.90
56374;DHT22;58212;47.034;7.376;2023-04-24T09:59:06;14.40;99.90
56374;DHT22;58212;47.034;7.376;2023-04-24T10:01:34;13.90;99.90
56374;DHT22;58212;47.034;7.376;2023-04-24T10:04:01;14.00;99.90
56374;DHT22;58212;47.034;7.376;2023-04-24T10:06:42;14.10;99.90
56374;DHT22;58212;47.034;7.376;2023-04-24T10:09:09;14.60;99.90
56374;DHT22;58212;47.034;7.376;2023-04-24T10:14:10;15.20;99.90
56374;DHT22;58212;47.034;7.376;2023-04-24T10:16:40;14.90;99.90
56374;DHT22;58212;47.034;7.376;2023-04-24T10:19:07;15.30;99.90
56374;DHT22;58212;47.034;7.376;2023-04-24T10:21:36;15.60;99.90
56374;DHT22;58212;47.034;7.376;2023-04-24T10:24:08;15.30;99.90
56374;DHT22;58212;47.034;7.376;2023-04-24T10:26:40;15.30;99.90
56374;DHT22;58212;47.034;7.376;2023-04-24T10:29:35;15.40;99.90
56374;DHT22;58212;47.034;7.376;2023-04-24T10:32:02;15.60;99.90
56374;DHT22;58212;47.034;7.376;2023-04-24T10:34:30;15.80;99.90
56374;DHT22;58212;47.034;7.376;2023-04-24T10:36:59;15.90;99.90
56374;DHT22;58212;47.034;7.376;2023-04-24T10:39:26;15.40;99.90
56374;DHT22;58212;47.034;7.376;2023-04-24T10:45:38;15.10;99.90
56374;DHT22;58212;47.034;7.376;2023-04-24T10:48:08;15.40;99.90
56374;DHT22;58212;47.034;7.376;2023-04-24T10:50:43;15.80;99.90
56374;DHT22;58212;47.034;7.376;2023-04-24T10:53:18;15.70;99.90
56374;DHT22;58212;47.034;7.376;2023-04-24T10:55:47;15.70;99.90
56374;DHT22;58212;47.034;7.376;2023-04-24T10:58:14;15.70;99.90
56374;DHT22;58212;47.034;7.376;2023-04-24T11:00:55;15.90;99.90
56374;DHT22;58212;47.034;7.376;2023-04-24T11:03:26;16.20;99.90
56374;DHT22;58212;47.034;7.376;2023-04-24T11:06:00;15.80;99.90
56374;DHT22;58212;47.034;7.376;2023-04-24T11:08:37;15.80;99.90
56374;DHT22;58212;47.034;7.376;2023-04-24T11:11:11;15.60;99.90
56374;DHT22;58212;47.034;7.376;2023-04-24T11:14:03;15.50;99.90
56374;DHT22;58212;47.034;7.376;2023-04-24T11:16:33;14.90;99.90
56374;DHT22;58212;47.034;7.376;2023-04-24T11:19:04;15.10;99.90
56374;DHT22;58212;47.034;7.376;2023-04-24T11:21:39;15.50;99.90
56374;DHT22;58212;47.034;7.376;2023-04-24T11:24:48;15.20;99.90
56374;DHT22;58212;47.034;7.376;2023-04-24T11:27:24;15.60;99.90
56374;DHT22;58212;47.034;7.376;2023-04-24T11:30:00;15.30;99.90
56374;DHT22;58212;47.034;7.376;2023-04-24T11:32:29;15.10;99.90
56374;DHT22;58212;47.034;7.376;2023-04-24T11:34:59;15.40;99.90
56374;DHT22;58212;47.034;7.376;2023-04-24T11:37:28;15.90;99.90
56374;DHT22;58212;47.034;7.376;2023-04-24T11:39:59;16.20;99.90
56374;DHT22;58212;47.034;7.376;2023-04-24T11:42:26;16.10;99.90
56374;DHT22;58212;47.034;7.376;2023-04-24T11:44:55;16.60;99.90
56374;DHT22;58212;47.034;7.376;2023-04-24T11:47:29;17.00;99.90
56374;DHT22;58212;47.034;7.376;2023-04-24T11:49:57;17.10;99.90
56374;DHT22;58212;47.034;7.376;2023-04-24T11:52:25;16.30;99.90
56374;DHT22;58212;47.034;7.376;2023-04-24T11:54:55;16.00;99.90
56374;DHT22;58212;47.034;7.376;2023-04-24T11:57:24;15.30;99.90
56374;DHT22;58212;47.034;7.376;2023-04-24T11:59:54;16.20;99.90
56374;DHT22;58212;47.034;7.376;2023-04-24T12:02:25;15.70;99.90
56374;DHT22;58212;47.034;7.376;2023-04-24T12:04:53;16.40;99.90
56374;DHT22;58212;47.034;7.376;2023-04-24T12:07:21;16.10;99.90
56374;DHT22;58212;47.034;7.376;2023-04-24T12:09:55;16.10;99.90
56374;DHT22;58212;47.034;7.376;2023-04-24T12:12:28;15.40;99.90
56374;DHT22;58212;47.034;7.376;2023-04-24T12:14:56;15.20;99.90
56374;DHT22;58212;47.034;7.376;2023-04-24T12:17:25;15.90;99.90
56374;DHT22;58212;47.034;7.376;2023-04-24T12:19:56;16.00;99.90
56374;DHT22;58212;47.034;7.376;2023-04-24T12:22:23;15.20;99.90
56374;DHT22;58212;47.034;7.376;2023-04-24T12:24:58;15.90;99.90
56374;DHT22;58212;47.034;7.376;2023-04-24T12:27:29;16.80;99.90
56374;DHT22;58212;47.034;7.376;2023-04-24T12:29:57;16.70;99.90
56374;DHT22;58212;47.034;7.376;2023-04-24T12:32:26;16.20;99.90
56374;DHT22;58212;47.034;7.376;2023-04-24T12:34:54;16.30;99.90
56374;DHT22;58212;47.034;7.376;2023-04-24T12:37:23;16.50;99.90
56374;DHT22;58212;47.034;7.376;2023-04-24T12:39:59;16.60;99.90
56374;DHT22;58212;47.034;7.376;2023-04-24T12:42:32;16.20;99.90
56374;DHT22;58212;47.034;7.376;2023-04-24T12:45:01;16.50;99.90
56374;DHT22;58212;47.034;7.376;2023-04-24T12:47:31;16.30;99.90
56374;DHT22;58212;47.034;7.376;2023-04-24T12:49:59;16.40;99.90
56374;DHT22;58212;47.034;7.376;2023-04-24T12:52:28;16.00;99.90
56374;DHT22;58212;47.034;7.376;2023-04-24T12:54:56;15.80;99.90
56374;DHT22;58212;47.034;7.376;2023-04-24T12:57:25;16.00;99.90
56374;DHT22;58212;47.034;7.376;2023-04-24T12:59:55;16.30;99.90
56374;DHT22;58212;47.034;7.376;2023-04-24T13:02:22;16.30;99.90
56374;DHT22;58212;47.034;7.376;2023-04-24T13:04:50;16.40;99.90
56374;DHT22;58212;47.034;7.376;2023-04-24T13:07:17;16.20;99.90
56374;DHT22;58212;47.034;7.376;2023-04-24T13:09:45;16.50;99.90
56374;DHT22;58212;47.034;7.376;2023-04-24T13:12:15;16.30;99.90
56374;DHT22;58212;47.034;7.376;2023-04-24T13:14:43;16.00;99.90
56374;DHT22;58212;47.034;7.376;2023-04-24T13:17:16;15.60;99.90
56374;DHT22;58212;47.034;7.376;2023-04-24T13:19:44;15.30;99.90
56374;DHT22;58212;47.034;7.376;2023-04-24T13:22:12;15.40;99.90
56374;DHT22;58212;47.034;7.376;2023-04-24T13:24:40;15.30;99.90
56374;DHT22;58212;47.034;7.376;2023-04-24T13:27:07;14.90;99.90
56374;DHT22;58212;47.034;7.376;2023-04-24T13:29:37;14.70;99.90
56374;DHT22;58212;47.034;7.376;2023-04-24T13:32:04;14.90;99.90
56374;DHT22;58212;47.034;7.376;2023-04-24T13:34:34;15.20;99.90
56374;DHT22;58212;47.034;7.376;2023-04-24T13:37:02;15.70;99.90
56374;DHT22;58212;47.034;7.376;2023-04-24T13:39:30;15.80;99.90
56374;DHT22;58212;47.034;7.376;2023-04-24T13:41:59;16.10;99.90
56374;DHT22;58212;47.034;7.376;2023-04-24T13:44:26;15.90;99.90
56374;DHT22;58212;47.034;7.376;2023-04-24T13:46:57;16.40;99.90
56374;DHT22;58212;47.034;7.376;2023-04-24T13:49:25;16.40;99.90
56374;DHT22;58212;47.034;7.376;2023-04-24T13:51:55;16.70;99.90
56374;DHT22;58212;47.034;7.376;2023-04-24T13:54:22;16.70;99.90
56374;DHT22;58212;47.034;7.376;2023-04-24T13:56:51;16.60;99.90
56374;DHT22;58212;47.034;7.376;2023-04-24T13:59:19;16.70;99.90
56374;DHT22;58212;47.034;7.376;2023-04-24T14:01:47;16.20;99.90
56374;DHT22;58212;47.034;7.376;2023-04-24T14:04:15;16.10;99.90
56374;DHT22;58212;47.034;7.376;2023-04-24T14:07:10;16.20;99.90
56374;DHT22;58212;47.034;7.376;2023-04-24T14:09:38;16.00;99.90
56374;DHT22;58212;47.034;7.376;2023-04-24T14:12:30;15.90;99.90
56374;DHT22;58212;47.034;7.376;2023-04-24T14:15:22;16.00;99.90
56374;DHT22;58212;47.034;7.376;2023-04-24T14:18:13;15.40;99.90
56374;DHT22;58212;47.034;7.376;2023-04-24T14:20:45;15.60;99.90
56374;DHT22;58212;47.034;7.376;2023-04-24T14:23:14;15.50;99.90
56374;DHT22;58212;47.034;7.376;2023-04-24T14:25:43;15.70;99.90
56374;DHT22;58212;47.034;7.376;2023-04-24T14:28:11;16.20;99.90
56374;DHT22;58212;47.034;7.376;2023-04-24T14:30:38;16.40;99.90
56374;DHT22;58212;47.034;7.376;2023-04-24T14:33:07;16.00;99.90
56374;DHT22;58212;47.034;7.376;2023-04-24T14:35:35;15.60;99.90
56374;DHT22;58212;47.034;7.376;2023-04-24T14:38:04;15.10;99.90
56374;DHT22;58212;47.034;7.376;2023-04-24T14:40:34;15.60;99.90
56374;DHT22;58212;47.034;7.376;2023-04-24T14:43:04;15.60;99.90
56374;DHT22;58212;47.034;7.376;2023-04-24T14:45:33;15.60;99.90
56374;DHT22;58212;47.034;7.376;2023-04-24T14:48:00;16.00;99.90
56374;DHT22;58212;47.034;7.376;2023-04-24T14:50:27;15.70;99.90
56374;DHT22;58212;47.034;7.376;2023-04-24T14:52:55;15.80;99.90
56374;DHT22;58212;47.034;7.376;2023-04-24T14:55:23;16.00;99.90
56374;DHT22;58212;47.034;7.376;2023-04-24T14:57:52;15.80;99.90
56374;DHT22;58212;47.034;7.376;2023-04-24T15:00:44;15.60;99.90
56374;DHT22;58212;47.034;7.376;2023-04-24T15:03:11;15.80;99.90
56374;DHT22;58212;47.034;7.376;2023-04-24T15:05:38;15.40;99.90
56374;DHT22;58212;47.034;7.376;2023-04-24T15:08:08;15.60;99.90
56374;DHT22;58212;47.034;7.376;2023-04-24T15:10:35;15.60;99.90
56374;DHT22;58212;47.034;7.376;2023-04-24T15:13:04;15.70;99.90
56374;DHT22;58212;47.034;7.376;2023-04-24T15:15:31;15.60;99.90
56374;DHT22;58212;47.034;7.376;2023-04-24T15:17:58;15.60;99.90
56374;DHT22;58212;47.034;7.376;2023-04-24T15:20:25;15.50;99.90
56374;DHT22;58212;47.034;7.376;2023-04-24T15:22:52;15.60;99.90
56374;DHT22;58212;47.034;7.376;2023-04-24T15:25:19;15.40;99.90
56374;DHT22;58212;47.034;7.376;2023-04-24T15:27:46;15.20;99.90
56374;DHT22;58212;47.034;7.376;2023-04-24T15:30:15;15.40;99.90
56374;DHT22;58212;47.034;7.376;2023-04-24T15:32:42;15.00;99.90
56374;DHT22;58212;47.034;7.376;2023-04-24T15:35:10;15.10;99.90
56374;DHT22;58212;47.034;7.376;2023-04-24T15:37:38;15.00;99.90
56374;DHT22;58212;47.034;7.376;2023-04-24T15:40:06;15.00;99.90
56374;DHT22;58212;47.034;7.376;2023-04-24T15:42:34;14.50;99.90
56374;DHT22;58212;47.034;7.376;2023-04-24T15:45:01;14.30;99.90
56374;DHT22;58212;47.034;7.376;2023-04-24T15:47:55;14.70;99.90
56374;DHT22;58212;47.034;7.376;2023-04-24T15:50:23;14.50;99.90
56374;DHT22;58212;47.034;7.376;2023-04-24T15:52:50;14.20;99.90
56374;DHT22;58212;47.034;7.376;2023-04-24T15:55:17;14.10;99.90
56374;DHT22;58212;47.034;7.376;2023-04-24T15:57:44;13.80;99.90
56374;DHT22;58212;47.034;7.376;2023-04-24T16:00:14;13.90;99.90
56374;DHT22;58212;47.034;7.376;2023-04-24T16:02:43;13.80;99.90